Time;durP1;ratioP1;P1;durP2;ratioP2;P2;SDS_P1;SDS_P2;PMS_P1;PMS_P2;Temp;Humidity;BMP_temperature;BMP_pressure;BME280_temperature;BME280_humidity;BME280_pressure;Samples;Min_cycle;Max_cycle;Signal;HPM_P1;HPM_P2
2022/01/17 00:01:56;;;;;;;15.57;12.83;;;;;;;2.21;100.00;101524.38;5042353;28;20235;-58
2022/01/17 00:04:22;;;;;;;16.80;13.17;;;;;;;2.29;100.00;101524.41;5085135;28;20271;-57
2022/01/17 00:06:48;;;;;;;17.83;13.50;;;;;;;2.32;100.00;101526.97;5080514;28;20672;-57
2022/01/17 00:09:13;;;;;;;18.10;13.10;;;;;;;2.33;100.00;101538.81;5079309;28;20182;-57
2022/01/17 00:11:43;;;;;;;18.23;13.53;;;;;;;2.06;100.00;101539.56;5041480;28;20570;-60
2022/01/17 00:14:15;;;;;;;16.73;13.27;;;;;;;1.98;100.00;101539.53;5076950;28;20179;-60
2022/01/17 00:16:46;;;;;;;16.73;13.33;;;;;;;1.93;100.00;101534.47;5073884;28;20273;-58
2022/01/17 00:21:50;;;;;;;15.47;12.47;;;;;;;2.02;100.00;101528.56;5065151;28;20223;-58
2022/01/17 00:24:16;;;;;;;18.70;14.27;;;;;;;2.08;100.00;101523.50;5083736;28;20285;-58
2022/01/17 00:26:41;;;;;;;15.57;13.23;;;;;;;1.94;100.00;101525.97;5084846;28;20653;-57
2022/01/17 00:29:07;;;;;;;16.03;12.83;;;;;;;2.01;100.00;101524.31;5084466;28;20180;-59
2022/01/17 00:31:32;;;;;;;18.50;13.67;;;;;;;2.23;100.00;101532.00;5042485;28;20559;-59
2022/01/17 00:33:57;;;;;;;17.07;13.07;;;;;;;2.39;100.00;101536.31;5076655;28;20183;-59
2022/01/17 00:36:23;;;;;;;15.80;12.93;;;;;;;2.38;100.00;101542.22;5085020;28;20193;-59
2022/01/17 00:38:49;;;;;;;15.97;13.13;;;;;;;2.44;100.00;101543.06;5082817;28;20199;-58
2022/01/17 00:41:15;;;;;;;17.03;12.67;;;;;;;2.36;100.00;101546.44;5064927;28;20265;-58
2022/01/17 00:43:40;;;;;;;16.87;13.00;;;;;;;2.20;100.00;101554.84;5075537;28;20187;-58
2022/01/17 00:46:05;;;;;;;18.37;13.13;;;;;;;2.41;100.00;101562.53;5085761;28;20199;-58
2022/01/17 00:48:31;;;;;;;15.97;12.37;;;;;;;2.25;100.00;101559.09;5074649;28;20305;-58
2022/01/17 00:50:56;;;;;;;15.73;12.37;;;;;;;2.35;100.00;101551.53;5069709;28;20702;-58
2022/01/17 00:53:21;;;;;;;15.57;12.63;;;;;;;2.47;100.00;101550.69;5079078;28;20589;-58
2022/01/17 00:55:47;;;;;;;17.20;13.53;;;;;;;2.34;100.00;101540.50;5076481;28;20182;-60
2022/01/17 00:58:12;;;;;;;14.17;11.77;;;;;;;2.23;100.00;101532.00;5083884;28;20184;-58
2022/01/17 01:00:38;;;;;;;16.93;12.73;;;;;;;2.18;100.00;101531.97;5070419;28;20231;-59
2022/01/17 01:03:04;;;;;;;16.33;13.23;;;;;;;2.33;100.00;101525.25;5082462;28;20593;-59
2022/01/17 01:05:30;;;;;;;18.83;13.13;;;;;;;2.45;100.00;101527.00;5081566;28;20186;-59
2022/01/17 01:07:58;;;;;;;16.47;12.87;;;;;;;2.41;100.00;101513.44;5078432;28;20266;-59
2022/01/17 01:10:24;;;;;;;15.50;12.33;;;;;;;2.34;100.00;101516.81;5070185;28;20239;-59
2022/01/17 01:12:51;;;;;;;15.70;11.93;;;;;;;2.31;100.00;101516.78;5069901;28;20611;-59
2022/01/17 01:15:22;;;;;;;16.70;12.50;;;;;;;2.34;100.00;101519.34;5081674;28;20188;-59
2022/01/17 01:17:52;;;;;;;15.63;12.17;;;;;;;2.20;100.00;101507.47;5083893;28;20186;-59
2022/01/17 01:28:13;;;;;;;16.13;12.10;;;;;;;2.15;100.00;101523.53;5081737;28;20234;-57
2022/01/17 01:30:42;;;;;;;15.73;12.00;;;;;;;2.01;100.00;101537.03;5049359;28;20315;-57
2022/01/17 01:33:08;;;;;;;17.63;12.17;;;;;;;1.91;100.00;101546.28;5074956;28;20234;-57
2022/01/17 01:35:42;;;;;;;13.97;11.87;;;;;;;1.85;100.00;101543.72;5079706;28;20198;-57
2022/01/17 01:38:07;;;;;;;14.93;12.47;;;;;;;1.80;100.00;101555.53;5059000;28;20554;-57
2022/01/17 01:40:33;;;;;;;16.07;12.60;;;;;;;1.96;100.00;101555.59;5065582;28;20228;-56
2022/01/17 01:42:59;;;;;;;16.20;12.00;;;;;;;2.01;100.00;101559.00;5082106;28;20199;-58
2022/01/17 01:45:24;;;;;;;15.37;11.80;;;;;;;1.87;100.00;101559.81;5080213;28;20722;-58
2022/01/17 01:47:50;;;;;;;17.57;11.50;;;;;;;1.93;100.00;101557.28;5080506;28;20210;-59
2022/01/17 01:50:16;;;;;;;14.10;11.47;;;;;;;1.90;100.00;101559.81;5071375;28;20216;-57
2022/01/17 01:52:41;;;;;;;16.03;11.43;;;;;;;2.07;100.00;101559.88;5064002;28;20195;-57
2022/01/17 01:55:10;;;;;;;13.10;10.43;;;;;;;2.05;100.00;101555.66;5072175;28;20185;-58
2022/01/17 01:57:35;;;;;;;13.43;10.90;;;;;;;2.04;100.00;101554.78;5083457;28;20672;-57
2022/01/17 02:00:01;;;;;;;15.37;11.63;;;;;;;1.89;100.00;101560.63;5078090;28;20216;-57
2022/01/17 02:02:26;;;;;;;13.97;10.77;;;;;;;1.96;100.00;101561.53;5066690;28;20328;-58
2022/01/17 02:04:51;;;;;;;14.90;10.97;;;;;;;1.92;100.00;101563.22;5082464;28;20189;-58
2022/01/17 02:07:17;;;;;;;13.53;11.17;;;;;;;1.90;100.00;101554.72;5062271;28;20274;-57
2022/01/17 02:09:43;;;;;;;14.37;10.87;;;;;;;1.95;100.00;101559.84;5077200;28;20194;-57
2022/01/17 02:12:08;;;;;;;13.27;10.17;;;;;;;2.03;100.00;101563.22;5058819;28;20242;-58
2022/01/17 02:14:34;;;;;;;14.30;10.50;;;;;;;2.05;100.00;101564.09;5076337;28;20187;-59
2022/01/17 02:17:04;;;;;;;14.87;11.07;;;;;;;2.00;100.00;101568.31;5080965;28;20572;-58
2022/01/17 02:19:30;;;;;;;15.90;10.50;;;;;;;2.19;100.00;101554.00;5077950;28;20190;-57
2022/01/17 02:21:56;;;;;;;16.17;11.53;;;;;;;1.91;100.00;101551.34;5047045;28;20319;-58
2022/01/17 02:24:22;;;;;;;13.57;10.33;;;;;;;1.82;100.00;101532.69;5078850;28;20554;-57
2022/01/17 02:26:50;;;;;;;15.27;11.90;;;;;;;1.65;100.00;101536.00;5059094;28;20220;-57
2022/01/17 02:29:16;;;;;;;12.63;9.83;;;;;;;1.63;100.00;101521.63;5087183;28;20867;-58
2022/01/17 02:31:44;;;;;;;12.40;10.17;;;;;;;1.55;100.00;101527.50;5059539;28;20234;-58
2022/01/17 02:34:10;;;;;;;12.67;10.67;;;;;;;1.53;100.00;101529.16;5074911;28;20181;-58
2022/01/17 02:36:36;;;;;;;15.23;10.90;;;;;;;1.37;100.00;101528.22;5081927;28;20649;-57
2022/01/17 02:39:03;;;;;;;13.47;10.37;;;;;;;1.39;100.00;101526.53;5080346;28;20265;-57
2022/01/17 02:41:33;;;;;;;13.93;10.40;;;;;;;1.45;100.00;101536.72;5061025;28;20252;-58
2022/01/17 02:44:01;;;;;;;14.70;11.07;;;;;;;1.35;100.00;101526.50;5080651;28;20542;-58
2022/01/17 02:46:26;;;;;;;12.87;10.40;;;;;;;1.15;100.00;101522.16;5073459;28;20291;-59
2022/01/17 02:48:54;;;;;;;13.07;10.07;;;;;;;1.22;100.00;101521.34;5076429;28;20229;-59
2022/01/17 02:51:19;;;;;;;13.50;10.90;;;;;;;1.19;100.00;101530.63;5063502;28;20231;-59
2022/01/17 02:53:44;;;;;;;13.77;11.23;;;;;;;1.19;100.00;101528.09;5071709;28;20180;-58
2022/01/17 02:56:10;;;;;;;14.63;10.57;;;;;;;1.11;100.00;101528.03;5083215;28;20656;-59
2022/01/17 02:58:37;;;;;;;13.60;10.83;;;;;;;1.22;100.00;101528.97;5078256;28;20185;-59
2022/01/17 03:01:07;;;;;;;14.07;11.17;;;;;;;0.96;100.00;101532.13;5064630;28;20711;-59
2022/01/17 03:03:32;;;;;;;14.33;10.47;;;;;;;0.96;100.00;101529.59;5068835;28;20683;-59
2022/01/17 03:05:58;;;;;;;12.07;9.80;;;;;;;1.15;100.00;101517.06;5076352;28;20236;-59
2022/01/17 03:08:26;;;;;;;13.33;10.23;;;;;;;1.04;100.00;101516.16;5081868;28;20200;-59
2022/01/17 03:10:54;;;;;;;12.97;9.73;;;;;;;1.04;100.00;101514.47;5070386;28;20225;-59
2022/01/17 03:13:26;;;;;;;13.43;10.63;;;;;;;1.13;100.00;101524.66;5075950;28;20288;-59
2022/01/17 03:15:56;;;;;;;13.93;10.40;;;;;;;1.19;100.00;101526.41;5077304;28;20256;-59
2022/01/17 03:18:23;;;;;;;16.17;11.13;;;;;;;1.18;100.00;101534.00;5075676;28;20184;-59
2022/01/17 03:20:49;;;;;;;13.93;9.77;;;;;;;1.39;100.00;101530.75;5071603;28;20701;-59
2022/01/17 03:23:14;;;;;;;14.70;10.07;;;;;;;1.49;100.00;101535.06;5080022;28;20279;-59
2022/01/17 03:25:39;;;;;;;13.20;9.53;;;;;;;1.37;100.00;101523.16;5086546;28;20617;-59
2022/01/17 03:28:05;;;;;;;15.73;10.73;;;;;;;1.55;100.00;101512.28;5080957;28;20226;-59
2022/01/17 03:30:33;;;;;;;12.47;9.47;;;;;;;1.54;100.00;101497.88;5072013;28;20320;-59
2022/01/17 03:33:03;;;;;;;13.37;10.30;;;;;;;1.48;100.00;101499.53;5076606;28;20705;-59
2022/01/17 03:35:28;;;;;;;12.20;9.10;;;;;;;1.51;100.00;101492.78;5082450;28;20188;-59
2022/01/17 03:37:53;;;;;;;12.40;9.77;;;;;;;1.48;100.00;101492.78;5079433;28;20174;-59
2022/01/17 03:40:19;;;;;;;12.17;9.27;;;;;;;1.67;100.00;101487.81;5074020;28;20193;-59
2022/01/17 03:42:44;;;;;;;11.70;9.23;;;;;;;1.67;100.00;101493.72;5076652;28;20272;-59
2022/01/17 03:45:10;;;;;;;13.20;9.70;;;;;;;1.69;100.00;101512.34;5063187;28;20189;-58
2022/01/17 03:47:38;;;;;;;11.97;9.93;;;;;;;1.68;100.00;101513.16;5086210;28;20229;-58
2022/01/17 03:50:06;;;;;;;13.63;9.33;;;;;;;1.66;100.00;101526.69;5076072;28;20197;-59
2022/01/17 03:52:31;;;;;;;10.13;8.57;;;;;;;1.66;100.00;101524.16;5070118;28;20685;-59
2022/01/17 03:54:58;;;;;;;10.63;8.60;;;;;;;1.60;100.00;101510.59;5078936;28;20179;-59
2022/01/17 03:57:23;;;;;;;11.50;8.43;;;;;;;1.47;100.00;101495.31;5084283;28;20379;-59
2022/01/17 03:59:48;;;;;;;11.87;8.83;;;;;;;1.48;100.00;101502.94;5080214;28;20188;-59
2022/01/17 04:02:14;;;;;;;11.87;9.30;;;;;;;1.45;100.00;101513.91;5060509;28;20236;-59
2022/01/17 04:04:39;;;;;;;10.77;8.10;;;;;;;1.41;100.00;101518.94;5085234;28;20255;-59
2022/01/17 04:07:04;;;;;;;12.30;8.77;;;;;;;1.39;100.00;101516.41;5082229;28;20205;-59
2022/01/17 04:09:30;;;;;;;10.87;8.30;;;;;;;1.20;100.00;101515.41;5086983;28;20566;-58
2022/01/17 04:11:55;;;;;;;10.60;8.73;;;;;;;1.29;100.00;101524.81;5060924;28;20228;-59
2022/01/17 04:14:20;;;;;;;13.40;8.70;;;;;;;1.31;100.00;101525.63;5077798;28;20192;-59
2022/01/17 04:16:45;;;;;;;12.63;9.03;;;;;;;1.23;100.00;101519.69;5073041;28;20216;-59
2022/01/17 04:19:12;;;;;;;12.80;9.90;;;;;;;1.38;100.00;101518.94;5083386;28;20555;-59
2022/01/17 04:21:38;;;;;;;13.07;9.33;;;;;;;1.39;100.00;101525.69;5062687;28;20231;-59
2022/01/17 04:24:03;;;;;;;11.80;9.33;;;;;;;1.46;100.00;101522.34;5076131;28;20178;-59
2022/01/17 04:26:28;;;;;;;10.97;8.60;;;;;;;1.18;100.00;101531.44;5079563;28;20220;-58
2022/01/17 04:28:54;;;;;;;11.00;8.73;;;;;;;1.35;100.00;101547.63;5082263;28;20223;-59
2022/01/17 04:31:19;;;;;;;10.47;8.33;;;;;;;1.47;100.00;101546.88;5053107;28;20685;-59
2022/01/17 04:33:45;;;;;;;11.37;8.10;;;;;;;1.55;100.00;101559.59;5081013;28;20630;-59
2022/01/17 04:36:10;;;;;;;10.10;7.87;;;;;;;1.71;100.00;101561.41;5078595;28;20294;-59
2022/01/17 04:38:36;;;;;;;11.53;7.90;;;;;;;1.71;100.00;101571.56;5084428;28;20191;-59
2022/01/17 04:41:06;;;;;;;11.60;8.23;;;;;;;1.76;100.00;101569.03;5074732;28;20323;-58
2022/01/17 04:46:03;;;;;;;10.27;8.00;;;;;;;1.74;100.00;101553.78;5078083;28;20223;-59
2022/01/17 04:48:29;;;;;;;9.13;7.90;;;;;;;1.84;100.00;101546.25;5087027;28;20190;-59
2022/01/17 04:50:54;;;;;;;10.67;7.60;;;;;;;1.83;100.00;101542.00;5067116;28;20783;-59
2022/01/17 04:53:21;;;;;;;8.30;6.73;;;;;;;1.80;100.00;101563.16;5075245;28;20679;-59
2022/01/17 04:55:48;;;;;;;8.90;7.30;;;;;;;1.72;100.00;101558.00;5076447;28;20184;-58
2022/01/17 04:58:14;;;;;;;8.93;6.70;;;;;;;1.82;100.00;101553.84;5083878;28;20776;-59
2022/01/17 05:00:46;;;;;;;7.80;6.47;;;;;;;1.90;100.00;101544.56;5070413;28;20228;-58
2022/01/17 05:03:13;;;;;;;6.80;6.10;;;;;;;1.88;100.00;101537.81;5080243;28;20207;-59
2022/01/17 05:05:38;;;;;;;7.73;6.67;;;;;;;1.96;100.00;101541.22;5080745;28;20181;-59
2022/01/17 05:08:04;;;;;;;8.30;6.50;;;;;;;1.83;100.00;101537.78;5078417;28;20183;-59
2022/01/17 05:10:29;;;;;;;10.43;6.70;;;;;;;2.08;100.00;101533.66;5070154;28;20278;-59
2022/01/17 05:12:55;;;;;;;7.83;5.70;;;;;;;2.01;100.00;101528.53;5074425;28;20212;-59
2022/01/17 05:15:34;;;;;;;8.33;6.47;;;;;;;2.14;100.00;101519.28;5079508;28;20262;-59
2022/01/17 05:20:57;;;;;;;8.93;5.90;;;;;;;2.18;100.00;101539.59;5017875;28;20304;-58
2022/01/17 05:23:23;;;;;;;6.60;5.70;;;;;;;2.31;100.00;101547.25;5083061;28;20193;-59
2022/01/17 05:25:48;;;;;;;7.40;5.90;;;;;;;2.29;100.00;101547.25;5072933;28;20198;-58
2022/01/17 05:28:13;;;;;;;7.33;6.30;;;;;;;2.39;100.00;101550.69;5077583;28;20197;-59
2022/01/17 05:30:39;;;;;;;6.60;5.90;;;;;;;2.50;100.00;101559.16;5068793;28;20292;-59
2022/01/17 05:33:04;;;;;;;7.70;6.00;;;;;;;2.53;100.00;101565.94;5074885;28;20210;-59
2022/01/17 05:35:30;;;;;;;7.37;6.40;;;;;;;2.84;100.00;101568.53;5080642;28;20202;-59
2022/01/17 05:37:55;;;;;;;7.93;6.00;;;;;;;2.91;100.00;101572.78;5084383;28;20214;-59
2022/01/17 05:40:21;;;;;;;7.57;5.90;;;;;;;3.03;100.00;101587.22;5068208;28;20224;-59
2022/01/17 05:42:46;;;;;;;7.63;6.20;;;;;;;2.90;100.00;101587.19;5078437;28;20217;-58
2022/01/17 05:45:13;;;;;;;8.37;6.70;;;;;;;3.11;100.00;101600.75;5085324;28;20181;-59
2022/01/17 05:47:39;;;;;;;6.97;5.67;;;;;;;3.12;100.00;101609.25;5082649;28;20549;-58
2022/01/17 05:50:06;;;;;;;6.73;5.90;;;;;;;3.14;100.00;101603.31;5044113;28;20207;-57
2022/01/17 05:52:32;;;;;;;6.10;5.47;;;;;;;2.99;100.00;101599.06;5080468;28;20679;-58
2022/01/17 05:54:58;;;;;;;7.00;6.13;;;;;;;3.02;100.00;101596.53;5076462;28;20179;-58
2022/01/17 05:57:23;;;;;;;7.07;5.83;;;;;;;2.94;100.00;101579.56;5081471;28;20178;-58
2022/01/17 05:59:49;;;;;;;6.50;5.90;;;;;;;3.06;100.00;101564.31;5078594;28;20602;-58
2022/01/17 06:02:14;;;;;;;7.60;6.40;;;;;;;3.06;100.00;101513.47;5068009;28;20239;-58
2022/01/17 06:04:39;;;;;;;7.27;6.10;;;;;;;2.83;100.00;101506.72;5083557;28;20206;-58
2022/01/17 06:07:05;;;;;;;7.90;6.60;;;;;;;2.68;100.00;101514.31;5075500;28;20208;-58
2022/01/17 06:09:31;;;;;;;8.03;6.30;;;;;;;2.55;100.00;101523.63;5084413;28;20602;-58
2022/01/17 06:11:56;;;;;;;7.47;6.07;;;;;;;2.63;100.00;101526.16;5058380;28;20266;-58
2022/01/17 06:14:22;;;;;;;8.37;6.10;;;;;;;2.61;100.00;101533.78;5075676;28;20183;-58
2022/01/17 06:16:50;;;;;;;8.13;6.93;;;;;;;2.77;100.00;101543.97;5073955;28;20187;-58
2022/01/17 06:19:15;;;;;;;9.30;6.83;;;;;;;2.64;100.00;101538.03;5082060;28;20188;-59
2022/01/17 06:21:41;;;;;;;9.50;6.03;;;;;;;2.72;100.00;101532.09;5059934;28;20296;-59
2022/01/17 06:24:09;;;;;;;7.10;6.23;;;;;;;2.74;100.00;101537.19;5075331;28;20188;-57
2022/01/17 06:26:35;;;;;;;6.57;5.57;;;;;;;2.94;100.00;101555.00;5078442;28;20242;-57
2022/01/17 06:29:01;;;;;;;6.73;5.97;;;;;;;2.91;100.00;101557.53;5079098;28;20221;-58
2022/01/17 06:31:26;;;;;;;6.13;5.53;;;;;;;2.96;100.00;101555.00;5066009;28;20696;-57
2022/01/17 06:33:51;;;;;;;7.97;6.30;;;;;;;3.05;100.00;101558.41;5084571;28;20243;-58
2022/01/17 06:36:17;;;;;;;6.27;5.50;;;;;;;3.01;100.00;101566.03;5076098;28;20187;-58
2022/01/17 06:38:42;;;;;;;9.67;7.10;;;;;;;2.92;100.00;101569.41;5062748;28;20641;-59
2022/01/17 06:41:07;;;;;;;7.47;6.43;;;;;;;3.07;100.00;101579.56;5072080;28;20230;-59
2022/01/17 06:43:33;;;;;;;7.40;6.07;;;;;;;3.17;100.00;101574.50;5068891;28;20249;-59
2022/01/17 06:45:58;;;;;;;8.30;6.60;;;;;;;3.11;100.00;101557.53;5077770;28;20218;-57
2022/01/17 06:48:23;;;;;;;7.63;6.63;;;;;;;2.99;100.00;101549.91;5084814;28;20708;-59
2022/01/17 06:50:48;;;;;;;7.37;6.23;;;;;;;3.03;100.00;101556.72;5075222;28;20328;-59
2022/01/17 06:53:14;;;;;;;6.53;5.87;;;;;;;3.07;100.00;101556.69;5083049;28;20326;-57
2022/01/17 06:55:39;;;;;;;8.30;6.50;;;;;;;2.98;100.00;101558.41;5087529;28;20190;-57
2022/01/17 06:58:04;;;;;;;6.73;6.03;;;;;;;2.97;100.00;101561.78;5089026;28;20663;-57
2022/01/17 07:00:30;;;;;;;7.97;6.33;;;;;;;3.00;100.00;101557.56;5079406;28;20261;-57
2022/01/17 07:02:55;;;;;;;7.97;6.50;;;;;;;2.97;100.00;101552.47;5086115;28;20207;-57
2022/01/17 07:05:20;;;;;;;8.17;6.83;;;;;;;3.10;100.00;101570.25;5086903;28;20186;-57
2022/01/17 07:07:46;;;;;;;8.33;6.90;;;;;;;2.95;100.00;101589.72;5085370;28;20215;-58
2022/01/17 07:10:11;;;;;;;7.33;6.43;;;;;;;2.97;100.00;101594.84;5075924;28;20549;-59
2022/01/17 07:12:37;;;;;;;8.03;6.27;;;;;;;3.11;100.00;101615.19;5085367;28;20253;-56
2022/01/17 07:15:04;;;;;;;6.40;5.70;;;;;;;3.00;100.00;101616.03;5084630;28;20175;-61
2022/01/17 07:17:30;;;;;;;7.87;6.50;;;;;;;3.16;100.00;101621.97;5088169;28;20207;-58
2022/01/17 07:19:55;;;;;;;7.60;6.67;;;;;;;3.20;100.00;101644.00;5091430;28;20582;-58
2022/01/17 07:22:20;;;;;;;9.07;7.03;;;;;;;3.21;100.00;101658.44;5076451;28;20232;-58
2022/01/17 07:24:47;;;;;;;8.60;7.40;;;;;;;3.42;100.00;101645.72;5070871;28;21484;-58
2022/01/17 07:27:16;;;;;;;7.80;7.00;;;;;;;3.31;100.00;101635.53;5067656;28;20295;-58
2022/01/17 07:29:42;;;;;;;8.20;6.50;;;;;;;3.38;100.00;101627.06;5078387;28;20241;-57
2022/01/17 07:32:09;;;;;;;7.70;6.90;;;;;;;3.50;100.00;101621.97;5065907;28;20692;-57
2022/01/17 07:34:34;;;;;;;7.73;6.83;;;;;;;3.65;100.00;101620.25;5080726;28;20180;-58
2022/01/17 07:36:59;;;;;;;9.20;6.43;;;;;;;3.62;100.00;101608.41;5079447;28;20190;-57
2022/01/17 07:39:26;;;;;;;7.00;6.13;;;;;;;3.49;100.00;101617.72;5076694;28;20175;-58
2022/01/17 07:41:51;;;;;;;6.43;5.83;;;;;;;3.60;100.00;101599.91;5069141;28;20228;-58
2022/01/17 07:44:20;;;;;;;7.97;7.10;;;;;;;3.64;100.00;101616.03;5079709;28;20168;-58
2022/01/17 07:46:58;;;;;;;7.43;5.87;;;;;;;3.61;100.00;101627.06;5077441;28;20187;-57
2022/01/17 07:49:25;;;;;;;7.97;6.17;;;;;;;3.68;100.00;101635.50;5078564;28;20204;-59
2022/01/17 07:51:58;;;;;;;9.03;6.50;;;;;;;3.59;100.00;101636.38;5053329;28;20768;-60
2022/01/17 07:54:29;;;;;;;9.20;6.77;;;;;;;3.79;100.00;101631.25;5073140;28;20177;-58
2022/01/17 07:56:56;;;;;;;8.07;6.60;;;;;;;3.73;100.00;101628.72;5074312;28;20169;-57
2022/01/17 07:59:21;;;;;;;8.88;7.63;;;;;;;4.10;100.00;101636.28;5076724;28;21532;-58
2022/01/17 08:01:47;;;;;;;8.73;6.27;;;;;;;3.95;100.00;101631.25;5046896;28;20370;-57
2022/01/17 08:04:12;;;;;;;7.87;6.60;;;;;;;3.81;100.00;101633.81;5081316;28;20529;-57
2022/01/17 08:06:39;;;;;;;8.07;6.37;;;;;;;3.76;100.00;101628.72;5078565;28;20271;-58
2022/01/17 08:09:18;;;;;;;7.97;6.50;;;;;;;3.72;100.00;101629.56;5082337;28;20287;-57
2022/01/17 08:11:44;;;;;;;8.37;7.13;;;;;;;3.83;100.00;101629.56;5073529;28;20235;-58
2022/01/17 08:14:09;;;;;;;7.63;6.63;;;;;;;4.01;100.00;101638.88;5076761;28;20180;-58
2022/01/17 08:16:35;;;;;;;7.23;6.33;;;;;;;4.04;100.00;101638.84;5056816;28;20668;-58
2022/01/17 08:19:00;;;;;;;7.80;6.47;;;;;;;4.14;100.00;101635.44;5082447;28;20236;-58
2022/01/17 08:21:26;;;;;;;12.07;6.50;;;;;;;4.16;100.00;101637.97;5073709;28;20778;-58
2022/01/17 08:23:53;;;;;;;6.40;5.40;;;;;;;4.24;100.00;101641.31;5078928;28;20262;-58
2022/01/17 08:26:19;;;;;;;6.37;5.77;;;;;;;4.36;99.42;101641.28;5077759;28;20216;-58
2022/01/17 08:28:45;;;;;;;6.70;5.63;;;;;;;4.44;98.54;101642.94;5065902;28;20184;-58
2022/01/17 08:31:10;;;;;;;7.13;5.83;;;;;;;4.36;98.36;101636.19;5053149;28;20704;-58
2022/01/17 08:33:36;;;;;;;6.40;5.30;;;;;;;4.39;97.96;101631.94;5078196;28;20204;-57
2022/01/17 08:36:01;;;;;;;7.10;6.37;;;;;;;4.11;98.28;101630.34;5079761;28;20625;-58
2022/01/17 08:38:29;;;;;;;6.63;5.63;;;;;;;4.16;98.40;101630.31;5084882;28;20187;-57
2022/01/17 08:40:56;;;;;;;6.97;6.27;;;;;;;4.20;98.09;101624.38;5064645;28;20235;-59
2022/01/17 08:43:21;;;;;;;6.23;5.47;;;;;;;4.23;98.59;101634.56;5083474;28;20697;-59
2022/01/17 08:45:48;;;;;;;7.20;5.93;;;;;;;4.17;99.08;101632.03;5082573;28;20272;-59
2022/01/17 08:48:14;;;;;;;8.63;6.53;;;;;;;4.19;98.71;101645.59;5086157;28;20173;-59
2022/01/17 08:50:41;;;;;;;7.50;5.90;;;;;;;4.10;98.76;101643.91;5070716;28;20224;-59
2022/01/17 08:53:10;;;;;;;7.07;6.30;;;;;;;4.33;99.09;101637.91;5076326;28;20746;-59
2022/01/17 08:55:36;;;;;;;9.97;6.57;;;;;;;4.31;98.37;101640.44;5076035;28;20172;-59
2022/01/17 08:58:02;;;;;;;7.67;5.90;;;;;;;4.19;98.21;101643.91;5076228;28;20723;-59
2022/01/17 09:00:27;;;;;;;8.00;6.57;;;;;;;4.41;98.13;101648.06;5073186;28;20675;-59
2022/01/17 09:02:52;;;;;;;7.83;5.70;;;;;;;4.45;97.69;101658.25;5072048;28;20267;-59
2022/01/17 09:05:18;;;;;;;7.33;6.13;;;;;;;4.36;97.30;101666.75;5079645;28;20183;-59
2022/01/17 09:07:43;;;;;;;9.77;5.97;;;;;;;4.24;97.45;101678.69;5078934;28;20200;-59
2022/01/17 09:10:09;;;;;;;10.03;6.10;;;;;;;4.27;98.03;101682.09;5073682;28;20269;-59
2022/01/17 09:12:34;;;;;;;7.53;6.30;;;;;;;4.37;98.29;101690.53;5072167;28;20630;-59
2022/01/17 09:15:00;;;;;;;9.97;6.00;;;;;;;4.26;98.56;101689.75;5072539;28;20206;-59
2022/01/17 09:17:26;;;;;;;9.13;6.93;;;;;;;4.20;98.74;101694.00;5079302;28;20173;-57
2022/01/17 09:19:51;;;;;;;9.60;6.17;;;;;;;4.15;99.15;101690.59;5083163;28;20187;-60
2022/01/17 09:22:16;;;;;;;11.93;6.70;;;;;;;4.38;98.56;101682.06;5057100;28;20784;-59
2022/01/17 09:24:42;;;;;;;178.00;170.47;;;;;;;4.49;97.06;101690.50;2958577;28;2990549;-58
2022/01/17 09:27:08;;;;;;;9.40;7.37;;;;;;;4.72;96.05;101678.53;3922179;28;990631;-59
2022/01/17 09:29:34;;;;;;;7.50;6.80;;;;;;;4.80;93.83;101674.22;3639650;28;990197;-59
2022/01/17 09:32:00;;;;;;;7.23;5.93;;;;;;;4.90;94.31;101678.44;5070498;28;20217;-59
2022/01/17 09:34:26;;;;;;;9.50;6.13;;;;;;;4.72;94.17;101683.63;5075144;28;20176;-59
2022/01/17 09:36:52;;;;;;;6.43;5.83;;;;;;;4.71;95.36;101680.22;5081061;28;20172;-58
2022/01/17 09:39:18;;;;;;;8.30;5.90;;;;;;;4.60;95.92;101689.59;5062226;28;20234;-58
2022/01/17 09:41:44;;;;;;;9.43;6.30;;;;;;;4.59;96.48;101710.84;5054648;28;20733;-58
2022/01/17 09:44:09;;;;;;;7.63;5.63;;;;;;;4.80;95.90;101713.31;5072462;28;20170;-58
2022/01/17 09:46:41;;;;;;;6.27;5.63;;;;;;;4.72;95.67;101724.41;5077152;28;20199;-58
2022/01/17 09:54:25;;;;;;;7.43;6.63;;;;;;;5.09;92.84;101719.97;5070844;28;20391;-59
2022/01/17 09:56:52;;;;;;;6.83;5.73;;;;;;;5.04;92.21;101728.53;5080866;28;20686;-58
2022/01/17 09:59:17;;;;;;;7.93;6.00;;;;;;;4.99;92.74;101731.91;5080108;28;20633;-58
2022/01/17 10:01:43;;;;;;;8.17;5.80;;;;;;;5.12;92.24;101714.88;5062971;28;20272;-58
2022/01/17 10:04:09;;;;;;;6.73;5.30;;;;;;;5.13;92.00;101720.81;5077187;28;20635;-58
2022/01/17 10:06:36;;;;;;;7.03;6.00;;;;;;;5.05;92.31;101736.16;5086340;28;20183;-58
2022/01/17 10:09:24;;;;;;;8.13;5.70;;;;;;;5.04;92.07;101719.16;5080207;28;20192;-59
2022/01/17 10:11:59;;;;;;;7.77;6.13;;;;;;;5.03;91.90;101719.16;5068861;28;20317;-59
2022/01/17 10:14:26;;;;;;;8.63;5.63;;;;;;;5.13;92.44;101713.97;5075199;28;20174;-59
2022/01/17 10:16:51;;;;;;;6.73;5.30;;;;;;;5.03;93.11;101716.63;5083929;28;20172;-59
2022/01/17 10:19:20;;;;;;;6.93;6.10;;;;;;;5.19;92.44;101709.72;5076192;28;20308;-59
2022/01/17 10:21:50;;;;;;;7.53;6.43;;;;;;;5.24;92.06;101716.47;5069882;28;20224;-59
2022/01/17 10:35:08;;;;;;;6.27;5.60;;;;;;;5.29;91.01;101703.69;5039293;28;20230;-59
2022/01/17 10:37:33;;;;;;;9.50;5.90;;;;;;;5.36;90.67;101696.84;5080125;28;20174;-58
2022/01/17 10:40:05;;;;;;;8.63;5.93;;;;;;;5.36;90.35;101700.25;5077508;28;20523;-59
2022/01/17 10:42:45;;;;;;;7.33;6.07;;;;;;;5.44;89.30;101700.19;5057187;28;20276;-56
2022/01/17 10:45:18;;;;;;;9.43;6.13;;;;;;;5.46;89.97;101703.59;5084739;28;20173;-57
2022/01/17 10:47:44;;;;;;;6.70;5.43;;;;;;;5.41;89.67;101723.16;5087487;28;20188;-57
2022/01/17 10:50:35;;;;;;;7.07;5.17;;;;;;;5.32;89.33;101722.38;5061699;28;20202;-59
2022/01/17 10:53:03;;;;;;;7.33;5.93;;;;;;;5.33;90.29;101726.63;5051801;28;20283;-59
2022/01/17 10:55:37;;;;;;;7.50;5.03;;;;;;;5.54;90.50;101727.31;5079427;28;20190;-59
2022/01/17 10:58:07;;;;;;;6.30;4.97;;;;;;;5.37;89.58;101739.34;5075497;28;20235;-58
2022/01/17 11:00:34;;;;;;;6.93;5.37;;;;;;;5.45;90.28;101738.44;5071193;28;20269;-59
2022/01/17 11:03:11;;;;;;;9.60;6.13;;;;;;;5.43;89.11;101742.75;5075550;28;20232;-57
2022/01/17 11:05:41;;;;;;;6.20;5.55;;;;;;;5.91;87.10;101731.31;5069235;28;20560;-58
2022/01/17 11:08:08;;;;;;;6.93;5.33;;;;;;;5.83;87.05;101726.25;5079991;28;20183;-58
2022/01/17 11:10:40;;;;;;;6.50;5.20;;;;;;;5.90;87.42;101734.72;5042298;28;20610;-57
2022/01/17 11:13:08;;;;;;;7.47;5.35;;;;;;;6.07;86.45;101726.94;5060534;28;20418;-57
2022/01/17 11:15:37;;;;;;;5.63;5.03;;;;;;;6.13;86.14;101721.75;5084698;28;20179;-58
2022/01/17 11:18:10;;;;;;;5.83;5.20;;;;;;;5.88;86.33;101714.28;5076307;28;20247;-57
2022/01/17 11:20:35;;;;;;;5.23;4.53;;;;;;;5.74;86.71;101718.66;5060571;28;20601;-60
2022/01/17 11:23:02;;;;;;;7.27;5.13;;;;;;;5.87;86.84;101710.03;5071368;28;20201;-59
2022/01/17 11:25:36;;;;;;;6.73;5.07;;;;;;;5.75;87.30;101705.03;5076462;28;20208;-58
2022/01/17 11:28:04;;;;;;;5.87;4.70;;;;;;;5.96;87.57;101698.91;5056768;28;20541;-58
2022/01/17 11:30:31;;;;;;;9.43;4.87;;;;;;;5.79;87.49;101697.34;5065763;28;20226;-59
2022/01/17 11:32:58;;;;;;;5.57;4.73;;;;;;;5.65;88.22;101688.94;5073193;28;20196;-59
2022/01/17 11:35:25;;;;;;;7.57;5.47;;;;;;;5.54;88.97;101696.69;5082067;28;20236;-59
2022/01/17 11:37:55;;;;;;;5.13;4.60;;;;;;;5.41;89.17;101692.53;5063684;28;20178;-59
2022/01/17 11:40:27;;;;;;;6.33;4.83;;;;;;;5.23;90.15;101699.47;5066720;28;20652;-59
2022/01/17 11:42:53;;;;;;;5.80;4.80;;;;;;;5.35;90.19;101690.91;5076204;28;20540;-59
2022/01/17 11:45:21;;;;;;;9.10;5.60;;;;;;;5.37;90.24;101694.28;5080149;28;20201;-59
2022/01/17 11:47:58;;;;;;;5.93;5.33;;;;;;;5.57;89.30;101695.81;5082631;28;20233;-58
2022/01/17 11:50:31;;;;;;;5.60;5.00;;;;;;;5.86;88.57;101698.13;5075087;28;20233;-58
2022/01/17 11:53:11;;;;;;;5.73;5.13;;;;;;;5.96;87.21;101693.78;5078192;28;20197;-57